createdAt,value
2023-05-21T00:00:12.307Z,11.27
2023-05-21T00:02:39.607Z,10.60
2023-05-21T00:05:06.791Z,10.33
2023-05-21T00:07:33.307Z,9.00
2023-05-21T00:10:00.261Z,10.73
2023-05-21T00:12:26.876Z,11.50
2023-05-21T00:14:53.413Z,12.10
2023-05-21T00:17:19.909Z,11.30
2023-05-21T00:19:46.474Z,10.67
2023-05-21T00:22:14.288Z,11.80
2023-05-21T00:24:40.864Z,10.93
2023-05-21T00:27:07.351Z,11.33
2023-05-21T00:29:33.859Z,11.33
2023-05-21T00:32:00.388Z,10.17
2023-05-21T00:34:27.280Z,10.50
2023-05-21T00:36:55.505Z,10.53
2023-05-21T00:39:22.001Z,10.67
2023-05-21T00:41:48.630Z,10.57
2023-05-21T00:44:16.881Z,10.83
2023-05-21T00:46:44.324Z,11.07
2023-05-21T00:49:11.435Z,10.53
2023-05-21T00:51:37.985Z,10.10
2023-05-21T00:54:04.664Z,10.17
2023-05-21T00:56:31.178Z,11.00
2023-05-21T00:58:58.324Z,10.23
2023-05-21T01:01:34.023Z,10.10
2023-05-21T01:04:01.773Z,8.70
2023-05-21T01:06:34.680Z,9.23
2023-05-21T01:09:05.197Z,8.33
2023-05-21T01:11:44.027Z,9.70
2023-05-21T01:14:12.704Z,8.97
2023-05-21T01:16:41.094Z,8.93
2023-05-21T01:19:10.314Z,9.50
2023-05-21T01:21:37.903Z,9.27
2023-05-21T01:24:08.138Z,8.60
2023-05-21T01:26:38.732Z,8.50
2023-05-21T01:29:06.573Z,8.83
2023-05-21T01:32:05.721Z,8.60
2023-05-21T01:34:56.240Z,8.03
2023-05-21T01:37:35.376Z,9.17
2023-05-21T01:40:16.350Z,8.13
2023-05-21T01:42:44.743Z,8.03
2023-05-21T01:45:12.458Z,8.33
2023-05-21T01:47:39.709Z,8.43
2023-05-21T01:50:07.024Z,8.30
2023-05-21T01:52:33.656Z,7.80
2023-05-21T01:55:00.342Z,8.60
2023-05-21T01:57:26.933Z,7.77
2023-05-21T01:59:53.458Z,8.80
2023-05-21T02:02:20.108Z,9.53
2023-05-21T02:04:46.669Z,8.23
2023-05-21T02:07:15.078Z,9.53
2023-05-21T02:09:41.655Z,8.10
2023-05-21T02:12:08.279Z,9.10
2023-05-21T02:14:34.965Z,9.10
2023-05-21T02:17:01.474Z,9.17
2023-05-21T02:19:28.042Z,8.83
2023-05-21T02:21:54.567Z,8.83
2023-05-21T02:24:22.253Z,7.57
2023-05-21T02:26:50.409Z,8.87
2023-05-21T02:29:17.120Z,8.00
2023-05-21T02:31:43.610Z,8.20
2023-05-21T02:34:10.145Z,8.50
2023-05-21T02:36:36.688Z,8.57
2023-05-21T02:39:03.410Z,8.10
2023-05-21T02:41:29.901Z,8.80
2023-05-21T02:43:56.373Z,8.80
2023-05-21T02:46:22.964Z,8.83
2023-05-21T02:48:49.502Z,7.97
2023-05-21T02:51:16.213Z,8.80
2023-05-21T02:53:42.842Z,8.40
2023-05-21T02:56:09.455Z,8.50
2023-05-21T02:58:35.981Z,8.90
2023-05-21T03:01:02.512Z,8.33
2023-05-21T03:03:29.146Z,8.20
2023-05-21T03:05:55.663Z,8.53
2023-05-21T03:08:22.191Z,8.10
2023-05-21T03:10:48.956Z,8.90
2023-05-21T03:13:15.606Z,8.03
2023-05-21T03:15:43.899Z,7.77
2023-05-21T03:18:11.835Z,8.57
2023-05-21T03:20:43.657Z,9.53
2023-05-21T03:23:14.240Z,8.17
2023-05-21T03:25:42.871Z,8.17
2023-05-21T03:28:10.130Z,8.30
2023-05-21T03:30:39.589Z,8.17
2023-05-21T03:33:06.549Z,8.73
2023-05-21T03:35:33.245Z,8.83
2023-05-21T03:37:59.912Z,9.10
2023-05-21T03:40:26.428Z,8.80
2023-05-21T03:42:52.919Z,8.60
2023-05-21T03:45:19.536Z,9.10
2023-05-21T03:47:46.213Z,8.83
2023-05-21T03:50:12.803Z,9.33
2023-05-21T03:52:39.319Z,9.13
2023-05-21T03:55:06.675Z,9.50
2023-05-21T03:57:33.213Z,9.30
2023-05-21T03:59:59.869Z,8.40
2023-05-21T04:02:27.519Z,8.10
2023-05-21T04:04:55.849Z,8.53
2023-05-21T04:07:22.648Z,8.70
2023-05-21T04:09:49.317Z,8.30
2023-05-21T04:12:17.959Z,9.20
2023-05-21T04:14:44.407Z,8.90
2023-05-21T04:17:12.698Z,8.30
2023-05-21T04:19:39.294Z,8.90
2023-05-21T04:22:05.986Z,9.43
2023-05-21T04:24:32.552Z,8.73
2023-05-21T04:27:01.566Z,8.93
2023-05-21T04:29:29.889Z,7.90
2023-05-21T04:31:56.556Z,7.90
2023-05-21T04:34:24.344Z,7.97
2023-05-21T04:36:52.008Z,9.10
2023-05-21T04:39:18.518Z,8.13
2023-05-21T04:41:45.195Z,7.90
2023-05-21T04:44:14.700Z,8.70
2023-05-21T04:46:41.954Z,7.43
2023-05-21T04:49:10.143Z,8.53
2023-05-21T04:51:37.797Z,7.77
2023-05-21T04:54:04.397Z,9.57
2023-05-21T04:56:31.869Z,8.57
2023-05-21T04:58:58.951Z,8.50
2023-05-21T05:01:27.249Z,8.23
2023-05-21T05:03:54.069Z,10.30
2023-05-21T05:06:21.390Z,8.77
2023-05-21T05:08:48.005Z,8.90
2023-05-21T05:11:14.526Z,9.40
2023-05-21T05:13:43.905Z,10.23
2023-05-21T05:16:10.503Z,9.70
2023-05-21T05:18:37.036Z,9.63
2023-05-21T05:21:03.717Z,9.13
2023-05-21T05:23:30.414Z,10.50
2023-05-21T05:25:56.980Z,10.20
2023-05-21T05:28:23.575Z,10.43
2023-05-21T05:30:50.193Z,10.10
2023-05-21T05:33:16.756Z,9.80
2023-05-21T05:35:43.252Z,9.60
2023-05-21T05:38:10.498Z,9.87
2023-05-21T05:40:36.995Z,9.93
2023-05-21T05:43:03.661Z,10.30
2023-05-21T05:45:30.239Z,9.83
2023-05-21T05:47:56.850Z,10.57
2023-05-21T05:50:23.408Z,10.20
2023-05-21T05:52:50.064Z,9.63
2023-05-21T05:55:16.748Z,10.13
2023-05-21T05:57:44.976Z,10.00
2023-05-21T06:00:12.404Z,9.80
2023-05-21T06:02:38.945Z,10.07
2023-05-21T06:05:06.953Z,9.93
2023-05-21T06:07:33.750Z,9.80
2023-05-21T06:10:00.215Z,10.17
2023-05-21T06:12:26.730Z,9.50
2023-05-21T06:14:53.261Z,11.03
2023-05-21T06:17:19.737Z,9.70
2023-05-21T06:19:46.328Z,10.10
2023-05-21T06:22:12.914Z,9.37
2023-05-21T06:24:39.443Z,10.27
2023-05-21T06:27:06.255Z,10.23
2023-05-21T06:29:32.798Z,10.73
2023-05-21T06:31:59.289Z,10.03
2023-05-21T06:34:26.044Z,10.03
2023-05-21T06:36:52.816Z,10.00
2023-05-21T06:39:19.457Z,10.50
2023-05-21T06:41:46.066Z,11.43
2023-05-21T06:44:12.532Z,10.20
2023-05-21T06:46:39.073Z,10.57
2023-05-21T06:49:07.057Z,10.63
2023-05-21T06:51:34.057Z,10.70
2023-05-21T06:54:00.764Z,9.50
2023-05-21T06:56:27.383Z,10.87
2023-05-21T06:58:54.494Z,10.07
2023-05-21T07:01:22.417Z,11.40
2023-05-21T07:03:49.390Z,11.00
2023-05-21T07:06:17.003Z,10.97
2023-05-21T07:08:43.577Z,11.93
2023-05-21T07:11:10.335Z,11.30
2023-05-21T07:13:37.104Z,10.07
2023-05-21T07:16:03.734Z,11.30
2023-05-21T07:18:31.218Z,10.80
2023-05-21T07:20:57.779Z,10.63
2023-05-21T07:23:24.557Z,10.30
2023-05-21T07:25:51.325Z,10.70
2023-05-21T07:28:17.960Z,11.63
2023-05-21T07:30:44.522Z,11.47
2023-05-21T07:33:12.588Z,11.77
2023-05-21T07:35:39.347Z,11.50
2023-05-21T07:38:06.205Z,11.97
2023-05-21T07:40:32.773Z,11.80
2023-05-21T07:42:59.282Z,11.43
2023-05-21T07:45:25.897Z,12.20
2023-05-21T07:47:52.575Z,11.70
2023-05-21T07:50:19.204Z,11.30
2023-05-21T07:52:45.983Z,11.90
2023-05-21T07:55:12.578Z,13.03
2023-05-21T07:57:39.121Z,11.07
2023-05-21T08:00:09.565Z,11.20
2023-05-21T08:02:36.356Z,12.13
2023-05-21T08:05:03.088Z,12.60
2023-05-21T08:07:29.701Z,13.00
2023-05-21T08:09:56.478Z,12.33
2023-05-21T08:12:23.017Z,11.57
2023-05-21T08:14:49.698Z,13.13
2023-05-21T08:17:16.582Z,11.50
2023-05-21T08:19:43.218Z,12.97
2023-05-21T08:22:10.132Z,11.30
2023-05-21T08:24:36.801Z,11.50
2023-05-21T08:27:03.429Z,12.10
2023-05-21T08:29:30.041Z,11.27
2023-05-21T08:31:56.600Z,11.73
2023-05-21T08:34:23.291Z,17.47
2023-05-21T08:36:50.007Z,11.63
2023-05-21T08:39:16.662Z,11.70
2023-05-21T08:41:49.396Z,12.10
2023-05-21T08:44:20.432Z,11.33
2023-05-21T08:46:49.933Z,10.77
2023-05-21T08:49:17.540Z,12.27
2023-05-21T08:51:45.686Z,11.00
2023-05-21T08:54:13.957Z,11.17
2023-05-21T08:56:45.667Z,11.70
2023-05-21T08:59:12.755Z,12.80
2023-05-21T09:01:42.277Z,11.53
2023-05-21T09:04:20.266Z,14.03
2023-05-21T09:06:48.387Z,12.27
2023-05-21T09:09:24.879Z,11.50
2023-05-21T09:11:51.464Z,12.33
2023-05-21T09:14:18.902Z,11.60
2023-05-21T09:16:48.420Z,12.23
2023-05-21T09:19:15.086Z,13.10
2023-05-21T09:21:41.781Z,12.60
2023-05-21T09:24:09.646Z,13.20
2023-05-21T09:26:36.292Z,12.63
2023-05-21T09:29:02.838Z,12.33
2023-05-21T09:31:29.607Z,13.80
2023-05-21T09:33:56.200Z,13.70
2023-05-21T09:36:22.943Z,13.30
2023-05-21T09:38:51.823Z,13.73
2023-05-21T09:41:21.888Z,13.17
2023-05-21T09:43:48.828Z,12.60
2023-05-21T09:46:15.511Z,12.67
2023-05-21T09:48:43.595Z,14.10
2023-05-21T09:51:14.646Z,14.93
2023-05-21T09:54:01.108Z,13.87
2023-05-21T09:56:32.326Z,14.30
2023-05-21T09:59:01.972Z,14.07
2023-05-21T10:01:31.089Z,12.97
2023-05-21T10:03:59.390Z,13.80
2023-05-21T10:06:30.085Z,13.83
2023-05-21T10:08:58.099Z,15.57
2023-05-21T10:11:31.015Z,14.00
2023-05-21T10:13:58.165Z,15.70
2023-05-21T10:16:24.891Z,13.50
2023-05-21T10:18:54.150Z,14.67
2023-05-21T10:21:24.050Z,16.93
2023-05-21T10:23:51.653Z,15.70
2023-05-21T10:26:21.444Z,13.90
2023-05-21T10:28:50.080Z,16.20
2023-05-21T10:31:16.904Z,19.13
2023-05-21T10:33:43.602Z,48.20
2023-05-21T10:36:10.351Z,24.13
2023-05-21T10:38:37.618Z,15.93
2023-05-21T10:41:07.458Z,16.40
2023-05-21T10:44:21.827Z,16.97
2023-05-21T10:47:22.400Z,16.53
2023-05-21T10:49:59.407Z,16.60
2023-05-21T10:52:38.039Z,17.80
2023-05-21T10:55:29.667Z,18.00
2023-05-21T10:58:18.294Z,16.97
2023-05-21T11:00:45.159Z,17.13
2023-05-21T11:03:13.193Z,16.90
2023-05-21T11:05:43.807Z,15.97
2023-05-21T11:08:23.545Z,16.70
2023-05-21T11:11:00.288Z,16.30
2023-05-21T11:13:27.552Z,16.80
2023-05-21T11:16:05.210Z,17.50
2023-05-21T11:18:37.892Z,16.17
2023-05-21T11:21:15.331Z,15.07
2023-05-21T11:23:53.742Z,16.53
2023-05-21T11:26:22.501Z,17.33
2023-05-21T11:29:08.569Z,17.30
2023-05-21T11:31:39.279Z,16.17
2023-05-21T11:34:09.119Z,15.20
2023-05-21T11:36:37.925Z,17.10
2023-05-21T11:39:11.976Z,17.00
2023-05-21T11:42:04.164Z,16.13
2023-05-21T11:44:41.851Z,15.17
2023-05-21T11:47:10.063Z,15.53
2023-05-21T11:49:37.200Z,15.40
2023-05-21T11:52:05.516Z,16.27
2023-05-21T11:54:36.779Z,16.80
2023-05-21T11:57:06.880Z,17.20
2023-05-21T11:59:34.407Z,19.10
2023-05-21T12:02:02.020Z,16.40
2023-05-21T12:04:38.615Z,16.80
2023-05-21T12:07:10.226Z,17.03
2023-05-21T12:09:44.409Z,14.30
2023-05-21T12:12:16.174Z,15.73
2023-05-21T12:15:01.535Z,17.40
2023-05-21T12:17:28.231Z,16.80
2023-05-21T12:19:56.541Z,16.97
2023-05-21T12:22:24.758Z,16.40
2023-05-21T12:24:51.468Z,15.40
2023-05-21T12:27:18.257Z,17.40
2023-05-21T12:29:46.088Z,17.03
2023-05-21T12:32:14.445Z,17.20
2023-05-21T12:34:46.195Z,15.37
2023-05-21T12:37:32.615Z,14.80
2023-05-21T12:40:00.671Z,15.10
2023-05-21T12:42:32.392Z,15.20
2023-05-21T12:44:59.066Z,13.87
2023-05-21T12:47:26.878Z,14.90
2023-05-21T12:50:04.101Z,15.73
2023-05-21T12:52:31.068Z,15.33
2023-05-21T12:54:58.052Z,14.40
2023-05-21T12:57:26.207Z,15.87
2023-05-21T12:59:57.728Z,15.00
2023-05-21T13:02:26.046Z,14.80
2023-05-21T13:05:00.683Z,14.47
2023-05-21T13:07:31.175Z,15.23
2023-05-21T13:09:59.099Z,15.23
2023-05-21T13:12:27.543Z,14.87
2023-05-21T13:14:55.481Z,14.30
2023-05-21T13:17:22.605Z,14.60
2023-05-21T13:20:15.605Z,15.50
2023-05-21T13:22:46.572Z,13.30
2023-05-21T13:25:21.810Z,14.80
2023-05-21T13:27:49.474Z,14.30
2023-05-21T13:30:16.069Z,15.53
2023-05-21T13:32:43.432Z,15.60
2023-05-21T13:35:11.325Z,15.37
2023-05-21T13:37:39.990Z,13.73
2023-05-21T13:40:11.510Z,14.60
2023-05-21T13:42:40.825Z,15.33
2023-05-21T13:45:09.037Z,15.40
2023-05-21T13:47:39.183Z,13.93
2023-05-21T13:50:07.473Z,14.20
2023-05-21T13:52:34.162Z,15.27
2023-05-21T13:55:00.989Z,13.50
2023-05-21T13:57:30.621Z,14.53
2023-05-21T13:59:58.147Z,15.37
2023-05-21T14:02:24.841Z,15.67
2023-05-21T14:04:51.764Z,17.63
2023-05-21T14:07:18.401Z,14.70
2023-05-21T14:09:47.547Z,15.43
2023-05-21T14:12:14.308Z,15.40
2023-05-21T14:14:41.413Z,14.43
2023-05-21T14:17:07.959Z,13.83
2023-05-21T14:19:34.612Z,14.30
2023-05-21T14:22:01.201Z,17.20
2023-05-21T14:24:27.732Z,14.30
2023-05-21T14:26:54.489Z,14.13
2023-05-21T14:29:21.020Z,14.03
2023-05-21T14:31:47.558Z,14.60
2023-05-21T14:34:14.203Z,15.80
2023-05-21T14:36:40.942Z,14.17
2023-05-21T14:39:45.011Z,13.50
2023-05-21T14:42:52.855Z,13.80
2023-05-21T14:46:00.092Z,14.37
2023-05-21T14:49:07.396Z,13.40
2023-05-21T14:52:14.594Z,14.40
2023-05-21T14:55:22.388Z,13.90
2023-05-21T14:57:48.885Z,13.77
2023-05-21T15:00:16.078Z,13.50
2023-05-21T15:02:42.731Z,15.70
2023-05-21T15:05:09.674Z,13.80
2023-05-21T15:07:36.485Z,13.27
2023-05-21T15:10:03.090Z,13.70
2023-05-21T15:12:30.130Z,13.50
2023-05-21T15:14:56.818Z,14.70
2023-05-21T15:17:23.846Z,14.00
2023-05-21T15:19:50.414Z,15.17
2023-05-21T15:22:21.153Z,13.30
2023-05-21T15:24:52.329Z,14.27
2023-05-21T15:27:19.193Z,13.80
2023-05-21T15:29:45.943Z,14.33
2023-05-21T15:32:12.481Z,13.60
2023-05-21T15:34:39.093Z,14.60
2023-05-21T15:37:05.752Z,14.80
2023-05-21T15:39:32.271Z,17.10
2023-05-21T15:42:00.701Z,15.57
2023-05-21T15:44:27.246Z,14.60
2023-05-21T15:46:54.787Z,14.67
2023-05-21T15:49:21.339Z,14.03
2023-05-21T15:51:48.609Z,14.80
2023-05-21T15:54:15.182Z,14.10
2023-05-21T15:56:43.489Z,14.73
2023-05-21T15:59:10.038Z,13.90
2023-05-21T16:01:36.699Z,15.13
2023-05-21T16:04:04.853Z,14.70
2023-05-21T16:06:31.593Z,13.37
2023-05-21T16:08:58.938Z,14.47
2023-05-21T16:11:26.336Z,14.00
2023-05-21T16:13:53.778Z,14.43
2023-05-21T16:16:23.840Z,13.70
2023-05-21T16:18:51.391Z,13.63
2023-05-21T16:21:18.074Z,13.10
2023-05-21T16:23:44.687Z,13.50
2023-05-21T16:26:11.574Z,14.03
2023-05-21T16:28:38.116Z,14.50
2023-05-21T16:31:06.119Z,14.70
2023-05-21T16:33:32.971Z,14.53
2023-05-21T16:35:59.502Z,14.97
2023-05-21T16:38:26.006Z,14.50
2023-05-21T16:40:52.625Z,14.17
2023-05-21T16:43:19.215Z,14.00
2023-05-21T16:45:46.786Z,13.40
2023-05-21T16:48:13.603Z,15.07
2023-05-21T16:50:40.776Z,14.03
2023-05-21T16:53:09.677Z,14.20
2023-05-21T16:55:37.633Z,14.73
2023-05-21T16:58:05.551Z,15.60
2023-05-21T17:00:32.608Z,14.37
2023-05-21T17:02:59.233Z,15.23
2023-05-21T17:05:26.415Z,15.40
2023-05-21T17:07:52.981Z,13.20
2023-05-21T17:10:19.734Z,13.73
2023-05-21T17:12:46.290Z,14.20
2023-05-21T17:15:12.854Z,14.17
2023-05-21T17:17:39.473Z,16.00
2023-05-21T17:20:06.992Z,15.60
2023-05-21T17:22:33.527Z,15.80
2023-05-21T17:25:00.041Z,14.77
2023-05-21T17:27:26.574Z,15.83
2023-05-21T17:29:53.119Z,16.83
2023-05-21T17:32:22.600Z,14.80
2023-05-21T17:34:49.164Z,16.77
2023-05-21T17:37:16.216Z,15.80
2023-05-21T17:39:42.789Z,15.47
2023-05-21T17:42:09.271Z,17.37
2023-05-21T17:44:35.808Z,17.13
2023-05-21T17:47:02.349Z,16.30
2023-05-21T17:49:29.040Z,16.73
2023-05-21T17:51:55.819Z,16.67
2023-05-21T17:54:22.344Z,17.23
2023-05-21T17:56:48.972Z,16.73
2023-05-21T17:59:16.609Z,17.87
2023-05-21T18:01:43.188Z,18.27
2023-05-21T18:04:12.047Z,16.67
2023-05-21T18:06:39.596Z,17.80
2023-05-21T18:09:14.359Z,17.00
2023-05-21T18:11:43.317Z,16.80
2023-05-21T18:14:09.880Z,18.90
2023-05-21T18:16:36.474Z,16.90
2023-05-21T18:19:05.876Z,18.00
2023-05-21T18:21:34.422Z,17.87
2023-05-21T18:24:02.092Z,17.60
2023-05-21T18:26:30.232Z,17.27
2023-05-21T18:28:57.950Z,17.97
2023-05-21T18:31:25.170Z,17.50
2023-05-21T18:33:52.066Z,17.83
2023-05-21T18:36:18.771Z,17.57
2023-05-21T18:38:45.345Z,16.63
2023-05-21T18:41:11.917Z,17.80
2023-05-21T18:43:38.486Z,17.83
2023-05-21T18:46:05.250Z,18.83
2023-05-21T18:48:32.980Z,17.70
2023-05-21T18:51:01.511Z,18.43
2023-05-21T18:53:28.133Z,18.17
2023-05-21T18:55:54.808Z,18.67
2023-05-21T18:58:21.345Z,17.67
2023-05-21T19:00:47.836Z,20.40
2023-05-21T19:03:14.365Z,18.47
2023-05-21T19:05:41.055Z,19.47
2023-05-21T19:08:07.561Z,14.10
2023-05-21T19:10:34.168Z,12.63
2023-05-21T19:13:00.895Z,13.23
2023-05-21T19:15:27.405Z,12.20
2023-05-21T19:17:54.307Z,9.07
2023-05-21T19:20:24.313Z,7.80
2023-05-21T19:22:50.990Z,7.83
2023-05-21T19:25:17.504Z,9.77
2023-05-21T19:27:44.407Z,8.43
2023-05-21T19:30:11.294Z,7.80
2023-05-21T19:32:37.785Z,7.73
2023-05-21T19:35:05.564Z,8.07
2023-05-21T19:37:32.049Z,8.87
2023-05-21T19:39:58.576Z,8.20
2023-05-21T19:42:25.097Z,9.20
2023-05-21T19:44:51.753Z,8.27
2023-05-21T19:47:18.353Z,9.07
2023-05-21T19:49:45.167Z,8.77
2023-05-21T19:52:12.382Z,8.10
2023-05-21T19:54:39.269Z,9.40
2023-05-21T19:57:06.783Z,8.50
2023-05-21T19:59:33.407Z,8.53
2023-05-21T20:01:59.971Z,9.47
2023-05-21T20:04:27.439Z,9.77
2023-05-21T20:06:53.981Z,11.53
2023-05-21T20:09:20.555Z,10.93
2023-05-21T20:11:49.913Z,11.47
2023-05-21T20:14:16.502Z,11.93
2023-05-21T20:16:47.062Z,11.20
2023-05-21T20:19:15.167Z,12.90
2023-05-21T20:21:41.900Z,13.13
2023-05-21T20:24:08.726Z,14.70
2023-05-21T20:26:36.412Z,13.30
2023-05-21T20:29:03.394Z,12.20
2023-05-21T20:31:30.568Z,11.80
2023-05-21T20:33:57.108Z,12.97
2023-05-21T20:36:23.768Z,12.87
2023-05-21T20:38:50.368Z,13.10
2023-05-21T20:41:16.914Z,14.57
2023-05-21T20:43:45.361Z,14.60
2023-05-21T20:46:11.843Z,13.40
2023-05-21T20:48:38.361Z,15.07
2023-05-21T20:51:04.991Z,14.93
2023-05-21T20:53:31.954Z,14.37
2023-05-21T20:55:58.587Z,15.87
2023-05-21T20:58:25.409Z,15.47
2023-05-21T21:00:51.997Z,16.47
2023-05-21T21:03:18.772Z,16.43
2023-05-21T21:05:45.402Z,16.60
2023-05-21T21:08:12.383Z,16.90
2023-05-21T21:10:41.242Z,17.07
2023-05-21T21:13:08.163Z,16.00
2023-05-21T21:15:35.245Z,16.97
2023-05-21T21:18:01.805Z,17.10
2023-05-21T21:20:28.596Z,15.83
2023-05-21T21:22:55.382Z,17.17
2023-05-21T21:25:36.723Z,15.50
2023-05-21T21:28:04.364Z,16.50
2023-05-21T21:30:31.082Z,18.07
2023-05-21T21:32:57.617Z,17.80
2023-05-21T21:35:24.524Z,18.10
2023-05-21T21:37:51.447Z,17.80
2023-05-21T21:40:21.200Z,18.20
2023-05-21T21:42:47.733Z,16.50
2023-05-21T21:45:14.206Z,17.13
2023-05-21T21:47:41.101Z,19.07
2023-05-21T21:50:08.040Z,19.23
2023-05-21T21:52:34.706Z,20.27
2023-05-21T21:55:01.206Z,17.30
2023-05-21T21:57:29.407Z,18.10
2023-05-21T21:59:58.842Z,18.83
2023-05-21T22:02:25.776Z,20.00
2023-05-21T22:04:52.323Z,18.73
2023-05-21T22:07:20.706Z,18.47
2023-05-21T22:09:47.230Z,18.57
2023-05-21T22:12:13.765Z,19.20
2023-05-21T22:14:40.267Z,19.00
2023-05-21T22:17:08.530Z,19.03
2023-05-21T22:19:35.874Z,19.50
2023-05-21T22:22:03.989Z,19.40
2023-05-21T22:24:32.768Z,19.03
2023-05-21T22:27:02.575Z,19.83
2023-05-21T22:29:29.467Z,20.23
2023-05-21T22:31:56.107Z,19.40
2023-05-21T22:34:25.260Z,20.07
2023-05-21T22:36:51.897Z,20.83
2023-05-21T22:39:18.530Z,20.80
2023-05-21T22:41:45.576Z,20.77
2023-05-21T22:44:12.084Z,20.47
2023-05-21T22:46:38.922Z,21.87
2023-05-21T22:49:06.251Z,19.70
2023-05-21T22:51:34.432Z,21.13
2023-05-21T22:54:04.828Z,21.40
2023-05-21T22:56:31.335Z,20.90
2023-05-21T22:58:58.290Z,21.57
2023-05-21T23:01:24.958Z,19.60
2023-05-21T23:03:51.868Z,19.73
2023-05-21T23:06:18.613Z,19.37
2023-05-21T23:08:45.283Z,20.03
2023-05-21T23:11:11.859Z,19.07
2023-05-21T23:13:38.401Z,18.40
2023-05-21T23:16:05.873Z,18.77
2023-05-21T23:18:32.980Z,19.47
2023-05-21T23:21:01.010Z,18.37
2023-05-21T23:23:27.700Z,19.47
2023-05-21T23:25:58.903Z,20.20
2023-05-21T23:28:25.932Z,20.00
2023-05-21T23:30:52.712Z,20.60
2023-05-21T23:33:19.378Z,19.00
2023-05-21T23:35:45.956Z,18.50
2023-05-21T23:38:12.501Z,17.90
2023-05-21T23:40:39.591Z,18.53
2023-05-21T23:43:06.367Z,18.53
2023-05-21T23:45:33.047Z,18.23
2023-05-21T23:47:59.648Z,18.60
2023-05-21T23:50:26.215Z,19.57
2023-05-21T23:52:52.781Z,18.90
2023-05-21T23:55:19.320Z,19.30
2023-05-21T23:57:45.848Z,18.10
